createdAt,value
2023-05-21T00:00:24.212Z,3.03
2023-05-21T00:03:14.030Z,3.10
2023-05-21T00:06:03.751Z,3.28
2023-05-21T00:08:49.325Z,2.92
2023-05-21T00:11:34.913Z,3.15
2023-05-21T00:14:20.635Z,3.38
2023-05-21T00:17:06.566Z,3.50
2023-05-21T00:19:52.208Z,3.28
2023-05-21T00:22:37.597Z,3.25
2023-05-21T00:25:22.951Z,3.35
2023-05-21T00:28:08.589Z,3.33
2023-05-21T00:30:54.008Z,3.28
2023-05-21T00:33:40.248Z,3.40
2023-05-21T00:36:25.624Z,2.92
2023-05-21T00:39:12.261Z,3.65
2023-05-21T00:41:57.864Z,3.47
2023-05-21T00:44:43.314Z,2.97
2023-05-21T00:47:29.798Z,3.55
2023-05-21T00:50:15.924Z,3.40
2023-05-21T00:53:02.119Z,3.33
2023-05-21T00:55:49.020Z,3.78
2023-05-21T00:58:36.411Z,3.45
2023-05-21T01:01:22.144Z,3.50
2023-05-21T01:04:07.503Z,3.60
2023-05-21T01:06:53.625Z,3.78
2023-05-21T01:09:43.575Z,3.88
2023-05-21T01:12:31.861Z,3.25
2023-05-21T01:15:17.564Z,3.58
2023-05-21T01:18:03.660Z,3.25
2023-05-21T01:20:50.236Z,3.50
2023-05-21T01:23:35.876Z,3.30
2023-05-21T01:26:21.441Z,3.63
2023-05-21T01:29:07.102Z,3.63
2023-05-21T01:32:04.832Z,3.92
2023-05-21T01:35:01.037Z,3.80
2023-05-21T01:38:01.884Z,4.22
2023-05-21T01:40:54.279Z,3.85
2023-05-21T01:43:43.897Z,3.63
2023-05-21T01:46:32.864Z,4.00
2023-05-21T01:49:19.112Z,3.58
2023-05-21T01:52:05.418Z,3.80
2023-05-21T01:54:51.341Z,3.58
2023-05-21T01:57:36.868Z,3.70
2023-05-21T02:00:24.568Z,3.75
2023-05-21T02:03:10.078Z,3.83
2023-05-21T02:05:55.769Z,3.85
2023-05-21T02:08:41.495Z,4.25
2023-05-21T02:11:27.974Z,3.55
2023-05-21T02:14:15.427Z,4.20
2023-05-21T02:17:01.116Z,3.40
2023-05-21T02:19:47.017Z,3.55
2023-05-21T02:22:32.284Z,3.80
2023-05-21T02:25:19.702Z,3.78
2023-05-21T02:28:05.309Z,3.80
2023-05-21T02:30:50.750Z,3.63
2023-05-21T02:33:36.362Z,3.92
2023-05-21T02:36:21.516Z,3.80
2023-05-21T02:39:07.258Z,3.53
2023-05-21T02:41:53.973Z,3.90
2023-05-21T02:44:39.877Z,3.67
2023-05-21T02:47:25.940Z,4.03
2023-05-21T02:50:14.034Z,3.88
2023-05-21T02:53:04.613Z,4.15
2023-05-21T02:55:53.296Z,3.80
2023-05-21T02:58:38.889Z,4.32
2023-05-21T03:01:24.434Z,4.18
2023-05-21T03:04:09.882Z,4.15
2023-05-21T03:06:56.652Z,3.75
2023-05-21T03:09:42.542Z,4.07
2023-05-21T03:12:27.883Z,3.88
2023-05-21T03:15:16.745Z,3.60
2023-05-21T03:18:02.989Z,4.00
2023-05-21T03:20:48.943Z,4.20
2023-05-21T03:23:35.229Z,4.72
2023-05-21T03:26:22.055Z,3.97
2023-05-21T03:29:07.693Z,4.43
2023-05-21T03:31:55.904Z,4.55
2023-05-21T03:34:41.534Z,4.70
2023-05-21T03:37:27.346Z,4.80
2023-05-21T03:40:13.581Z,4.78
2023-05-21T03:43:00.916Z,4.80
2023-05-21T03:45:46.606Z,4.65
2023-05-21T03:48:50.997Z,4.55
2023-05-21T03:51:39.955Z,4.97
2023-05-21T03:54:28.069Z,4.28
2023-05-21T03:57:17.975Z,4.55
2023-05-21T04:00:08.875Z,4.93
2023-05-21T04:03:01.649Z,4.75
2023-05-21T04:05:47.349Z,4.70
2023-05-21T04:08:35.585Z,5.72
2023-05-21T04:11:22.718Z,5.22
2023-05-21T04:14:09.173Z,4.95
2023-05-21T04:16:54.688Z,4.97
2023-05-21T04:19:40.816Z,5.20
2023-05-21T04:22:29.205Z,4.75
2023-05-21T04:25:14.566Z,4.57
2023-05-21T04:28:01.284Z,4.47
2023-05-21T04:30:48.069Z,4.68
2023-05-21T04:33:39.036Z,5.22
2023-05-21T04:36:24.449Z,4.70
2023-05-21T04:39:09.936Z,5.35
2023-05-21T04:41:57.193Z,4.60
2023-05-21T04:44:44.794Z,4.88
2023-05-21T04:47:40.190Z,5.20
2023-05-21T04:50:25.684Z,5.10
2023-05-21T04:53:11.428Z,5.07
2023-05-21T04:55:59.304Z,5.07
2023-05-21T04:58:45.773Z,5.30
2023-05-21T05:01:32.345Z,5.50
2023-05-21T05:04:24.128Z,5.45
2023-05-21T05:07:09.836Z,5.97
2023-05-21T05:09:55.085Z,5.20
2023-05-21T05:12:41.613Z,5.15
2023-05-21T05:15:27.034Z,5.35
2023-05-21T05:18:13.034Z,5.70
2023-05-21T05:20:59.787Z,5.70
2023-05-21T05:23:45.619Z,5.22
2023-05-21T05:26:30.854Z,5.07
2023-05-21T05:29:20.498Z,5.20
2023-05-21T05:32:10.114Z,5.07
2023-05-21T05:34:55.518Z,4.80
2023-05-21T05:37:41.514Z,5.00
2023-05-21T05:40:26.881Z,4.60
2023-05-21T05:43:12.969Z,5.07
2023-05-21T05:45:58.310Z,5.00
2023-05-21T05:48:43.565Z,4.85
2023-05-21T05:51:30.233Z,5.20
2023-05-21T05:54:16.403Z,5.10
2023-05-21T05:57:01.840Z,4.53
2023-05-21T05:59:46.857Z,4.82
2023-05-21T06:02:34.048Z,4.50
2023-05-21T06:05:19.846Z,5.53
2023-05-21T06:08:05.298Z,5.78
2023-05-21T06:10:50.834Z,5.50
2023-05-21T06:13:36.292Z,5.13
2023-05-21T06:16:23.168Z,5.53
2023-05-21T06:19:08.736Z,4.97
2023-05-21T06:21:54.387Z,5.40
2023-05-21T06:24:39.758Z,5.30
2023-05-21T06:27:25.031Z,5.18
2023-05-21T06:30:11.009Z,5.50
2023-05-21T06:32:57.361Z,5.05
2023-05-21T06:35:43.027Z,5.80
2023-05-21T06:38:30.113Z,5.57
2023-05-21T06:41:17.226Z,5.75
2023-05-21T06:44:15.779Z,5.43
2023-05-21T06:47:30.617Z,5.97
2023-05-21T06:50:16.638Z,5.22
2023-05-21T06:53:02.191Z,6.28
2023-05-21T06:55:49.263Z,5.47
2023-05-21T06:58:39.280Z,5.50
2023-05-21T07:01:25.225Z,5.45
2023-05-21T07:04:11.197Z,5.53
2023-05-21T07:06:57.189Z,5.57
2023-05-21T07:09:46.739Z,5.75
2023-05-21T07:12:32.292Z,5.45
2023-05-21T07:15:17.877Z,5.60
2023-05-21T07:18:03.795Z,6.35
2023-05-21T07:20:49.398Z,5.80
2023-05-21T07:23:35.113Z,5.65
2023-05-21T07:29:31.367Z,5.60
2023-05-21T07:32:17.260Z,5.60
2023-05-21T07:35:03.083Z,5.50
2023-05-21T07:37:54.261Z,6.03
2023-05-21T07:40:39.965Z,6.25
2023-05-21T07:43:25.497Z,6.47
2023-05-21T07:46:11.845Z,6.55
2023-05-21T07:48:57.807Z,6.10
2023-05-21T07:51:44.461Z,6.13
2023-05-21T07:54:30.134Z,5.85
2023-05-21T07:57:16.621Z,6.22
2023-05-21T08:00:15.001Z,6.63
2023-05-21T08:03:12.246Z,6.22
2023-05-21T08:05:57.878Z,6.22
2023-05-21T08:08:43.426Z,6.60
2023-05-21T08:11:28.950Z,6.43
2023-05-21T08:14:14.326Z,6.45
2023-05-21T08:16:59.739Z,6.25
2023-05-21T08:19:45.671Z,6.10
2023-05-21T08:22:31.425Z,6.63
2023-05-21T08:25:17.015Z,6.07
2023-05-21T08:28:02.750Z,5.85
2023-05-21T08:30:48.810Z,6.15
2023-05-21T08:33:39.236Z,7.32
2023-05-21T08:36:25.911Z,6.00
2023-05-21T08:39:16.956Z,5.68
2023-05-21T08:42:22.583Z,5.53
2023-05-21T08:45:20.778Z,5.97
2023-05-21T08:48:07.656Z,6.03
2023-05-21T08:50:54.660Z,5.75
2023-05-21T08:53:46.006Z,6.15
2023-05-21T08:56:34.428Z,5.93
2023-05-21T08:59:21.827Z,6.10
2023-05-21T09:02:08.873Z,5.78
2023-05-21T09:04:57.270Z,6.05
2023-05-21T09:07:52.476Z,6.38
2023-05-21T09:10:51.135Z,5.68
2023-05-21T09:13:39.190Z,6.50
2023-05-21T09:16:31.151Z,5.88
2023-05-21T09:19:16.429Z,5.68
2023-05-21T09:22:04.104Z,6.43
2023-05-21T09:24:52.233Z,5.95
2023-05-21T09:27:39.257Z,5.72
2023-05-21T09:30:33.259Z,5.80
2023-05-21T09:33:29.572Z,5.57
2023-05-21T09:36:15.409Z,5.68
2023-05-21T09:39:01.190Z,5.07
2023-05-21T09:41:48.700Z,5.20
2023-05-21T09:44:35.258Z,5.10
2023-05-21T09:47:21.728Z,5.65
2023-05-21T09:50:08.220Z,5.32
2023-05-21T09:52:55.546Z,5.70
2023-05-21T09:55:41.886Z,5.00
2023-05-21T09:58:27.491Z,5.53
2023-05-21T10:01:14.064Z,5.60
2023-05-21T10:04:01.468Z,6.30
2023-05-21T10:06:50.751Z,5.68
2023-05-21T10:09:36.738Z,5.47
2023-05-21T10:12:23.877Z,5.50
2023-05-21T10:15:12.398Z,6.03
2023-05-21T10:17:59.617Z,5.90
2023-05-21T10:20:46.435Z,5.53
2023-05-21T10:23:32.353Z,5.85
2023-05-21T10:26:19.768Z,5.80
2023-05-21T10:29:05.400Z,6.07
2023-05-21T10:31:53.157Z,5.30
2023-05-21T10:34:39.162Z,5.60
2023-05-21T10:37:26.805Z,5.68
2023-05-21T10:40:13.239Z,6.10
2023-05-21T10:43:16.830Z,5.15
2023-05-21T10:46:33.384Z,5.82
2023-05-21T10:49:40.736Z,4.88
2023-05-21T10:52:50.807Z,5.65
2023-05-21T10:56:06.820Z,5.10
2023-05-21T11:01:39.402Z,5.82
2023-05-21T11:04:28.707Z,6.13
2023-05-21T11:07:22.559Z,5.72
2023-05-21T11:10:31.534Z,6.43
2023-05-21T11:13:19.717Z,5.53
2023-05-21T11:16:07.165Z,6.15
2023-05-21T11:18:55.009Z,6.05
2023-05-21T11:21:40.524Z,7.03
2023-05-21T11:24:28.214Z,5.57
2023-05-21T11:27:13.789Z,5.95
2023-05-21T11:29:59.604Z,6.00
2023-05-21T11:33:14.020Z,5.93
2023-05-21T11:36:00.537Z,6.28
2023-05-21T11:39:10.781Z,6.10
2023-05-21T11:42:03.779Z,5.90
2023-05-21T11:44:49.968Z,5.73
2023-05-21T11:47:35.885Z,5.50
2023-05-21T11:50:21.135Z,5.93
2023-05-21T11:53:07.710Z,5.68
2023-05-21T11:55:57.562Z,5.82
2023-05-21T11:58:43.350Z,6.13
2023-05-21T12:01:31.070Z,5.45
2023-05-21T12:04:16.349Z,6.30
2023-05-21T12:07:09.146Z,5.50
2023-05-21T12:09:54.713Z,5.35
2023-05-21T12:12:54.035Z,5.82
2023-05-21T12:15:42.023Z,6.07
2023-05-21T12:18:30.322Z,5.43
2023-05-21T12:21:19.727Z,6.13
2023-05-21T12:24:05.561Z,6.03
2023-05-21T12:26:52.095Z,5.78
2023-05-21T12:29:38.726Z,6.20
2023-05-21T12:32:27.662Z,5.50
2023-05-21T12:35:23.253Z,5.85
2023-05-21T12:38:09.907Z,5.50
2023-05-21T12:40:55.529Z,5.57
2023-05-21T12:43:42.213Z,5.80
2023-05-21T12:46:28.416Z,6.15
2023-05-21T12:49:34.752Z,5.28
2023-05-21T12:52:21.070Z,5.43
2023-05-21T12:55:09.341Z,6.30
2023-05-21T12:58:21.946Z,6.72
2023-05-21T13:01:09.492Z,5.70
2023-05-21T13:03:55.961Z,6.20
2023-05-21T13:06:44.676Z,5.93
2023-05-21T13:09:30.142Z,6.15
2023-05-21T13:12:15.620Z,5.57
2023-05-21T13:15:03.803Z,6.25
2023-05-21T13:17:50.601Z,5.65
2023-05-21T13:20:37.410Z,5.55
2023-05-21T13:23:23.444Z,5.82
2023-05-21T13:26:09.848Z,5.75
2023-05-21T13:28:55.153Z,5.80
2023-05-21T13:31:44.228Z,5.63
2023-05-21T13:34:30.165Z,6.05
2023-05-21T13:37:15.824Z,5.38
2023-05-21T13:40:01.936Z,6.40
2023-05-21T13:42:49.156Z,5.70
2023-05-21T13:45:34.568Z,5.60
2023-05-21T13:48:22.630Z,5.63
2023-05-21T13:51:07.760Z,5.75
2023-05-21T13:53:54.493Z,5.47
2023-05-21T13:56:42.040Z,5.47
2023-05-21T13:59:27.600Z,5.25
2023-05-21T14:02:13.318Z,5.35
2023-05-21T14:04:59.498Z,6.13
2023-05-21T14:07:47.635Z,5.68
2023-05-21T14:10:33.124Z,5.78
2023-05-21T14:13:20.080Z,5.65
2023-05-21T14:16:06.527Z,5.70
2023-05-21T14:18:52.074Z,5.88
2023-05-21T14:21:37.336Z,6.10
2023-05-21T14:24:22.442Z,5.60
2023-05-21T14:27:08.368Z,5.88
2023-05-21T14:29:53.606Z,6.07
2023-05-21T14:32:39.102Z,5.80
2023-05-21T14:35:24.684Z,5.68
2023-05-21T14:38:10.889Z,6.00
2023-05-21T14:40:56.323Z,5.30
2023-05-21T14:43:43.506Z,5.60
2023-05-21T14:46:30.245Z,6.22
2023-05-21T14:49:15.896Z,5.88
2023-05-21T14:52:01.300Z,5.43
2023-05-21T14:54:46.624Z,5.30
2023-05-21T14:57:31.936Z,4.95
2023-05-21T15:00:17.778Z,5.50
2023-05-21T15:03:06.697Z,5.60
2023-05-21T15:05:52.257Z,5.68
2023-05-21T15:08:40.356Z,5.00
2023-05-21T15:11:25.646Z,5.50
2023-05-21T15:14:11.093Z,5.55
2023-05-21T15:16:56.425Z,5.75
2023-05-21T15:19:41.886Z,5.88
2023-05-21T15:22:27.710Z,5.00
2023-05-21T15:25:13.169Z,5.93
2023-05-21T15:27:58.760Z,5.70
2023-05-21T15:30:47.105Z,5.20
2023-05-21T15:33:32.827Z,5.10
2023-05-21T15:36:18.275Z,5.22
2023-05-21T15:39:03.903Z,5.13
2023-05-21T15:41:49.808Z,4.80
2023-05-21T15:44:35.720Z,4.47
2023-05-21T15:47:21.280Z,5.85
2023-05-21T15:50:10.977Z,5.00
2023-05-21T15:52:56.213Z,5.38
2023-05-21T15:55:41.803Z,5.13
2023-05-21T15:58:27.457Z,5.05
2023-05-21T16:01:12.963Z,5.20
2023-05-21T16:03:58.171Z,4.93
2023-05-21T16:06:43.775Z,5.50
2023-05-21T16:09:29.009Z,4.82
2023-05-21T16:12:14.377Z,5.68
2023-05-21T16:14:59.778Z,4.93
2023-05-21T16:17:45.299Z,5.68
2023-05-21T16:20:31.041Z,5.68
2023-05-21T16:23:16.666Z,5.30
2023-05-21T16:26:04.573Z,5.03
2023-05-21T16:28:50.208Z,5.65
2023-05-21T16:31:35.855Z,5.07
2023-05-21T16:34:21.053Z,5.38
2023-05-21T16:37:08.776Z,6.20
2023-05-21T16:39:54.118Z,5.20
2023-05-21T16:42:40.349Z,5.28
2023-05-21T16:45:27.214Z,5.68
2023-05-21T16:48:13.606Z,5.43
2023-05-21T16:50:59.698Z,5.53
2023-05-21T16:53:48.198Z,5.53
2023-05-21T16:56:33.341Z,5.53
2023-05-21T16:59:20.935Z,5.85
2023-05-21T17:02:07.492Z,6.00
2023-05-21T17:04:53.019Z,5.40
2023-05-21T17:07:38.966Z,6.60
2023-05-21T17:10:28.059Z,5.57
2023-05-21T17:13:21.717Z,6.18
2023-05-21T17:16:11.549Z,5.85
2023-05-21T17:18:57.083Z,5.90
2023-05-21T17:21:42.614Z,6.40
2023-05-21T17:24:28.207Z,6.15
2023-05-21T17:27:23.895Z,6.45
2023-05-21T17:30:10.259Z,6.15
2023-05-21T17:32:56.057Z,6.45
2023-05-21T17:35:41.603Z,7.35
2023-05-21T17:38:26.659Z,5.70
2023-05-21T17:41:14.986Z,5.93
2023-05-21T17:44:00.427Z,6.03
2023-05-21T17:46:56.469Z,6.10
2023-05-21T17:49:43.860Z,6.72
2023-05-21T17:52:29.223Z,5.57
2023-05-21T17:55:15.071Z,6.15
2023-05-21T17:58:00.428Z,6.07
2023-05-21T18:00:45.901Z,6.28
2023-05-21T18:03:31.999Z,5.32
2023-05-21T18:06:19.709Z,4.93
2023-05-21T18:09:07.983Z,4.60
2023-05-21T18:11:55.527Z,4.70
2023-05-21T18:14:40.890Z,5.00
2023-05-21T18:17:26.354Z,4.95
2023-05-21T18:20:12.844Z,5.53
2023-05-21T18:22:58.133Z,4.70
2023-05-21T18:25:43.794Z,4.78
2023-05-21T18:28:31.818Z,5.15
2023-05-21T18:31:17.340Z,4.80
2023-05-21T18:34:03.813Z,4.28
2023-05-21T18:36:49.191Z,4.55
2023-05-21T18:39:34.683Z,5.05
2023-05-21T18:42:20.216Z,5.88
2023-05-21T18:45:07.936Z,4.90
2023-05-21T18:47:55.033Z,5.00
2023-05-21T18:50:40.442Z,5.15
2023-05-21T18:53:25.936Z,5.53
2023-05-21T18:56:11.126Z,5.65
2023-05-21T18:58:56.636Z,5.78
2023-05-21T19:01:42.292Z,5.15
2023-05-21T19:04:27.657Z,5.88
2023-05-21T19:07:13.198Z,6.03
2023-05-21T19:10:00.204Z,6.28
2023-05-21T19:12:45.990Z,5.47
2023-05-21T19:15:31.388Z,6.18
2023-05-21T19:18:17.387Z,6.78
2023-05-21T19:21:06.446Z,6.97
2023-05-21T19:23:53.109Z,6.22
2023-05-21T19:26:39.116Z,6.55
2023-05-21T19:29:24.489Z,6.63
2023-05-21T19:32:10.261Z,6.38
2023-05-21T19:34:57.324Z,7.30
2023-05-21T19:37:42.468Z,6.75
2023-05-21T19:40:28.227Z,6.78
2023-05-21T19:43:13.662Z,7.30
2023-05-21T19:45:59.232Z,8.65
2023-05-21T19:48:44.895Z,8.00
2023-05-21T19:51:44.268Z,7.50
2023-05-21T19:54:29.887Z,7.68
2023-05-21T19:57:15.450Z,7.72
2023-05-21T20:00:01.232Z,8.23
2023-05-21T20:02:46.835Z,7.78
2023-05-21T20:05:32.421Z,7.07
2023-05-21T20:08:23.204Z,8.85
2023-05-21T20:11:09.105Z,8.18
2023-05-21T20:13:54.752Z,8.02
2023-05-21T20:16:40.625Z,8.60
2023-05-21T20:19:26.334Z,8.48
2023-05-21T20:22:11.691Z,8.75
2023-05-21T20:24:57.757Z,8.85
2023-05-21T20:27:43.238Z,8.10
2023-05-21T20:30:32.768Z,8.98
2023-05-21T20:33:21.143Z,9.50
2023-05-21T20:36:07.460Z,10.00
2023-05-21T20:38:52.936Z,9.82
2023-05-21T20:41:38.650Z,9.93
2023-05-21T20:44:25.861Z,9.98
2023-05-21T20:47:11.769Z,10.15
2023-05-21T20:49:59.001Z,10.73
2023-05-21T20:52:47.143Z,10.90
2023-05-21T20:55:38.845Z,10.80
2023-05-21T20:58:25.395Z,10.20
2023-05-21T21:01:14.516Z,11.38
2023-05-21T21:04:00.148Z,13.43
2023-05-21T21:06:46.661Z,12.05
2023-05-21T21:09:32.087Z,12.55
2023-05-21T21:15:07.328Z,13.13
2023-05-21T21:17:52.692Z,14.32
2023-05-21T21:20:39.374Z,14.00
2023-05-21T21:23:28.178Z,14.32
2023-05-21T21:26:17.832Z,13.38
2023-05-21T21:29:07.268Z,14.35
2023-05-21T21:31:53.368Z,15.48
2023-05-21T21:34:38.941Z,14.73
2023-05-21T21:37:24.521Z,15.90
2023-05-21T21:40:09.897Z,15.63
2023-05-21T21:42:55.217Z,15.20
2023-05-21T21:45:40.896Z,15.55
2023-05-21T21:48:26.453Z,15.48
2023-05-21T21:51:11.821Z,15.65
2023-05-21T21:53:58.225Z,15.73
2023-05-21T21:56:43.808Z,17.20
2023-05-21T21:59:29.483Z,17.27
2023-05-21T22:02:15.383Z,17.30
2023-05-21T22:05:00.923Z,18.05
2023-05-21T22:07:46.793Z,18.00
2023-05-21T22:10:37.453Z,18.10
2023-05-21T22:13:22.993Z,17.38
2023-05-21T22:16:08.483Z,18.27
2023-05-21T22:18:58.170Z,18.83
2023-05-21T22:21:43.735Z,19.25
2023-05-21T22:24:32.912Z,18.15
2023-05-21T22:27:18.766Z,19.25
2023-05-21T22:30:04.928Z,18.33
2023-05-21T22:32:50.314Z,17.88
2023-05-21T22:35:35.684Z,19.30
2023-05-21T22:38:20.981Z,18.25
2023-05-21T22:41:06.686Z,18.30
2023-05-21T22:43:52.282Z,19.20
2023-05-21T22:46:38.469Z,18.98
2023-05-21T22:49:23.828Z,19.50
2023-05-21T22:52:09.744Z,19.67
2023-05-21T22:54:54.961Z,20.65
2023-05-21T22:57:40.528Z,21.10
2023-05-21T23:00:26.150Z,21.25
2023-05-21T23:03:11.646Z,22.33
2023-05-21T23:05:57.268Z,21.85
2023-05-21T23:08:43.084Z,22.10
2023-05-21T23:11:28.405Z,23.50
2023-05-21T23:14:13.841Z,23.90
2023-05-21T23:17:01.907Z,23.65
2023-05-21T23:19:52.447Z,24.05
2023-05-21T23:22:37.671Z,23.35
2023-05-21T23:25:23.182Z,23.50
2023-05-21T23:28:08.674Z,23.20
2023-05-21T23:30:54.218Z,24.10
2023-05-21T23:33:39.371Z,24.65
2023-05-21T23:36:24.913Z,25.30
2023-05-21T23:39:10.792Z,26.77
2023-05-21T23:41:56.650Z,25.52
2023-05-21T23:44:44.957Z,25.38
2023-05-21T23:47:30.411Z,26.63
2023-05-21T23:50:15.949Z,26.38
2023-05-21T23:53:01.209Z,28.02
2023-05-21T23:55:46.778Z,28.67
2023-05-21T23:58:32.317Z,28.35
